Time;durP1;ratioP1;P1;durP2;ratioP2;P2;SDS_P1;SDS_P2;PMS_P1;PMS_P2;Temp;Humidity;BMP_temperature;BMP_pressure;BME280_temperature;BME280_humidity;BME280_pressure;Samples;Min_cycle;Max_cycle;Signal;HPM_P1;HPM_P2
2020/10/30 00:01:41;;;;;;;1.8;0.6;;;;;;;;;;;;;
2020/10/30 00:04:09;;;;;;;0.4;0.4;;;;;;;;;;;;;
2020/10/30 00:06:33;;;;;;;0.8;0.2;;;;;;;;;;;;;
2020/10/30 00:09:00;;;;;;;0.5;0.5;;;;;;;;;;;;;
2020/10/30 00:11:24;;;;;;;0.7;0.5;;;;;;;;;;;;;
2020/10/30 00:13:51;;;;;;;1.3;0.5;;;;;;;;;;;;;
2020/10/30 00:16:15;;;;;;;0.4;0.3;;;;;;;;;;;;;
2020/10/30 00:18:41;;;;;;;0.9;0.4;;;;;;;;;;;;;
2020/10/30 00:21:07;;;;;;;0.6;0.4;;;;;;;;;;;;;
2020/10/30 00:23:32;;;;;;;0.4;0.4;;;;;;;;;;;;;
2020/10/30 00:25:58;;;;;;;0.9;0.5;;;;;;;;;;;;;
2020/10/30 00:28:22;;;;;;;0.8;0.4;;;;;;;;;;;;;
2020/10/30 00:30:55;;;;;;;0.3;0.2;;;;;;;;;;;;;
2020/10/30 00:33:20;;;;;;;0.4;0.4;;;;;;;;;;;;;
2020/10/30 00:35:45;;;;;;;0.2;0.2;;;;;;;;;;;;;
2020/10/30 00:38:10;;;;;;;0.4;0.4;;;;;;;;;;;;;
2020/10/30 00:40:59;;;;;;;0.3;0.2;;;;;;;;;;;;;
2020/10/30 00:43:45;;;;;;;0.2;0.2;;;;;;;;;;;;;
2020/10/30 00:45:52;;;;;;;0.3;0.2;;;;;;;;;;;;;
2020/10/30 00:55:08;;;;;;;0.2;0.2;;;;;;;;;;;;;
2020/10/30 00:58:03;;;;;;;0.3;0.2;;;;;;;;;;;;;
2020/10/30 01:00:20;;;;;;;0.2;0.1;;;;;;;;;;;;;
2020/10/30 01:02:26;;;;;;;0.2;0.2;;;;;;;;;;;;;
2020/10/30 01:04:58;;;;;;;0.1;0.1;;;;;;;;;;;;;
2020/10/30 01:07:16;;;;;;;0.2;0.1;;;;;;;;;;;;;
2020/10/30 01:09:45;;;;;;;0;0;;;;;;;;;;;;;
2020/10/30 01:12:08;;;;;;;0.1;0;;;;;;;;;;;;;
2020/10/30 01:14:32;;;;;;;0.1;0.1;;;;;;;;;;;;;
2020/10/30 01:16:57;;;;;;;0.1;0.1;;;;;;;;;;;;;
2020/10/30 01:19:23;;;;;;;0.5;0.2;;;;;;;;;;;;;
2020/10/30 01:21:48;;;;;;;0.2;0.1;;;;;;;;;;;;;
2020/10/30 01:24:14;;;;;;;0.4;0.1;;;;;;;;;;;;;
2020/10/30 01:26:39;;;;;;;0.1;0.1;;;;;;;;;;;;;
2020/10/30 01:29:05;;;;;;;0.1;0.1;;;;;;;;;;;;;
2020/10/30 01:31:31;;;;;;;0.5;0.3;;;;;;;;;;;;;
2020/10/30 01:33:58;;;;;;;0;0;;;;;;;;;;;;;
2020/10/30 01:36:22;;;;;;;0;0;;;;;;;;;;;;;
2020/10/30 01:38:48;;;;;;;0.1;0.1;;;;;;;;;;;;;
2020/10/30 01:41:13;;;;;;;0.2;0;;;;;;;;;;;;;
2020/10/30 01:43:39;;;;;;;1.3;0.1;;;;;;;;;;;;;
2020/10/30 01:46:04;;;;;;;0.1;0.1;;;;;;;;;;;;;
2020/10/30 01:48:31;;;;;;;0.2;0.2;;;;;;;;;;;;;
2020/10/30 01:50:56;;;;;;;0.1;0.1;;;;;;;;;;;;;
2020/10/30 01:53:21;;;;;;;0;0;;;;;;;;;;;;;
2020/10/30 01:55:46;;;;;;;0.2;0.1;;;;;;;;;;;;;
2020/10/30 01:58:11;;;;;;;0.6;0.3;;;;;;;;;;;;;
2020/10/30 02:00:39;;;;;;;0.2;0.2;;;;;;;;;;;;;
2020/10/30 02:03:22;;;;;;;0.5;0.4;;;;;;;;;;;;;
2020/10/30 02:07:57;;;;;;;0.3;0.3;;;;;;;;;;;;;
2020/10/30 02:10:23;;;;;;;0.8;0.5;;;;;;;;;;;;;
2020/10/30 02:12:49;;;;;;;0.3;0.3;;;;;;;;;;;;;
2020/10/30 02:17:33;;;;;;;1;0.2;;;;;;;;;;;;;
2020/10/30 02:20:04;;;;;;;0.4;0.3;;;;;;;;;;;;;
2020/10/30 02:22:26;;;;;;;0.5;0.2;;;;;;;;;;;;;
2020/10/30 02:24:50;;;;;;;0.3;0.3;;;;;;;;;;;;;
2020/10/30 02:27:15;;;;;;;0.2;0.2;;;;;;;;;;;;;
2020/10/30 02:29:52;;;;;;;0.2;0.2;;;;;;;;;;;;;
2020/10/30 02:32:07;;;;;;;0.2;0.2;;;;;;;;;;;;;
2020/10/30 02:34:33;;;;;;;0.5;0.3;;;;;;;;;;;;;
2020/10/30 02:36:58;;;;;;;0.2;0.1;;;;;;;;;;;;;
2020/10/30 02:39:24;;;;;;;0.1;0.1;;;;;;;;;;;;;
2020/10/30 02:41:49;;;;;;;0.1;0.1;;;;;;;;;;;;;
2020/10/30 02:44:21;;;;;;;1.1;0.2;;;;;;;;;;;;;
2020/10/30 02:46:39;;;;;;;0;0;;;;;;;;;;;;;
2020/10/30 02:49:05;;;;;;;0.1;0.1;;;;;;;;;;;;;
2020/10/30 02:51:32;;;;;;;0.2;0.1;;;;;;;;;;;;;
2020/10/30 02:54:04;;;;;;;1.3;0.2;;;;;;;;;;;;;
2020/10/30 02:56:22;;;;;;;0.6;0.2;;;;;;;;;;;;;
2020/10/30 02:58:47;;;;;;;0.2;0.2;;;;;;;;;;;;;
2020/10/30 03:01:12;;;;;;;0.1;0.1;;;;;;;;;;;;;
2020/10/30 03:03:37;;;;;;;0.2;0;;;;;;;;;;;;;
2020/10/30 03:06:03;;;;;;;0.1;0.1;;;;;;;;;;;;;
2020/10/30 03:08:28;;;;;;;0.1;0.1;;;;;;;;;;;;;
2020/10/30 03:10:53;;;;;;;0.1;0.1;;;;;;;;;;;;;
2020/10/30 03:13:18;;;;;;;0.3;0.1;;;;;;;;;;;;;
2020/10/30 03:15:44;;;;;;;0.6;0.3;;;;;;;;;;;;;
2020/10/30 03:18:09;;;;;;;0.3;0.2;;;;;;;;;;;;;
2020/10/30 03:20:35;;;;;;;0.2;0.2;;;;;;;;;;;;;
2020/10/30 03:23:14;;;;;;;0.2;0.2;;;;;;;;;;;;;
2020/10/30 03:25:35;;;;;;;0.3;0.2;;;;;;;;;;;;;
2020/10/30 03:27:50;;;;;;;0.3;0.2;;;;;;;;;;;;;
2020/10/30 03:30:20;;;;;;;0.9;0.4;;;;;;;;;;;;;
2020/10/30 03:32:45;;;;;;;0.2;0.2;;;;;;;;;;;;;
2020/10/30 03:35:10;;;;;;;0.5;0.4;;;;;;;;;;;;;
2020/10/30 03:37:36;;;;;;;0.1;0.1;;;;;;;;;;;;;
2020/10/30 03:40:01;;;;;;;0.2;0.2;;;;;;;;;;;;;
2020/10/30 03:42:27;;;;;;;0.7;0.5;;;;;;;;;;;;;
2020/10/30 03:44:52;;;;;;;0.4;0.3;;;;;;;;;;;;;
2020/10/30 03:47:18;;;;;;;0.2;0.2;;;;;;;;;;;;;
2020/10/30 03:49:49;;;;;;;1.2;0.4;;;;;;;;;;;;;
2020/10/30 03:52:09;;;;;;;0.4;0.3;;;;;;;;;;;;;
2020/10/30 03:54:34;;;;;;;0.9;0.7;;;;;;;;;;;;;
2020/10/30 03:57:02;;;;;;;0.7;0.7;;;;;;;;;;;;;
2020/10/30 03:59:31;;;;;;;2;0.8;;;;;;;;;;;;;
2020/10/30 04:07:28;;;;;;;0.1;0.1;;;;;;;9.77;91.41797;943.8719;;;;
2020/10/30 04:09:53;;;;;;;0.4;0.3;;;;;;;9.82;91.26953;943.9441;;;;
2020/10/30 04:12:22;;;;;;;1;0.4;;;;;;;9.83;91.15918;944.0144;;;;
2020/10/30 04:14:47;;;;;;;0.1;0.1;;;;;;;9.82;91.25781;943.9623;;;;
2020/10/30 04:17:16;;;;;;;0.2;0.1;;;;;;;9.77;90.99609;944.0684;;;;
2020/10/30 04:19:44;;;;;;;1;0.2;;;;;;;9.59;91.49512;944.0641;;;;
2020/10/30 04:22:07;;;;;;;0.1;0.1;;;;;;;9.7;91.68945;944.0725;;;;
2020/10/30 04:24:25;;;;;;;0.1;0.1;;;;;;;9.79;91.37793;944.1071;;;;
2020/10/30 04:26:50;;;;;;;0.8;0.2;;;;;;;9.78;91.14844;944.1848;;;;
2020/10/30 04:29:15;;;;;;;0.1;0.1;;;;;;;9.88;90.91797;944.0798;;;;
2020/10/30 04:31:40;;;;;;;0.5;0.2;;;;;;;10;90.37305;944.2756;;;;
2020/10/30 04:34:12;;;;;;;0.3;0.3;;;;;;;9.99;89.96973;944.3915;;;;
2020/10/30 04:36:46;;;;;;;0.4;0.2;;;;;;;9.98;90.19629;944.3667;;;;
2020/10/30 04:39:08;;;;;;;0.5;0.4;;;;;;;10.05;89.81348;944.3781;;;;
2020/10/30 04:41:37;;;;;;;0.8;0.3;;;;;;;10.07;89.57813;944.4788;;;;
2020/10/30 04:58:29;;;;;;;2.2;1.2;;;;;;;10.05;89.08203;944.5642;;;;
2020/10/30 05:01:02;;;;;;;4.4;1.9;;;;;;;10.05;88.95703;944.5666;;;;
2020/10/30 05:05:52;;;;;;;0.6;0.5;;;;;;;9.85;89.99902;944.6136;;;;
2020/10/30 05:08:19;;;;;;;1.7;1;;;;;;;9.89;90.13379;944.6519;;;;
2020/10/30 05:10:43;;;;;;;0.7;0.6;;;;;;;9.96;89.74902;944.6423;;;;
2020/10/30 05:13:10;;;;;;;1.1;0.6;;;;;;;9.88;89.98145;944.6334;;;;
2020/10/30 05:15:35;;;;;;;0.9;0.5;;;;;;;9.88;90.12988;944.6119;;;;
2020/10/30 05:18:02;;;;;;;0.5;0.5;;;;;;;9.91;90.02344;944.6372;;;;
2020/10/30 05:20:27;;;;;;;0.3;0.3;;;;;;;9.79;90.66016;944.6113;;;;
2020/10/30 05:22:52;;;;;;;1.8;0.8;;;;;;;9.74;90.63672;944.6666;;;;
2020/10/30 05:25:24;;;;;;;2.6;0.6;;;;;;;9.82;90.36914;944.7444;;;;
2020/10/30 05:27:52;;;;;;;0.7;0.5;;;;;;;9.86;89.92285;944.6934;;;;
2020/10/30 05:30:18;;;;;;;1.4;0.8;;;;;;;9.8;90.27441;944.6569;;;;
2020/10/30 05:32:47;;;;;;;1.1;0.8;;;;;;;9.84;90.24707;944.6516;;;;
2020/10/30 05:35:14;;;;;;;0.8;0.5;;;;;;;9.83;90.13379;944.7223;;;;
2020/10/30 05:37:40;;;;;;;2.5;0.5;;;;;;;9.91;89.62402;944.6994;;;;
2020/10/30 05:40:05;;;;;;;0.6;0.6;;;;;;;9.93;89.71875;944.687;;;;
2020/10/30 05:42:32;;;;;;;1.8;0.4;;;;;;;9.8;90.10156;944.6472;;;;
2020/10/30 05:44:57;;;;;;;1.1;0.6;;;;;;;9.71;90.58594;944.6198;;;;
2020/10/30 05:47:22;;;;;;;8.1;0.9;;;;;;;9.71;90.88184;944.7001;;;;
2020/10/30 05:49:47;;;;;;;0.5;0.3;;;;;;;9.49;91.59766;944.7924;;;;
2020/10/30 05:52:12;;;;;;;0.4;0.4;;;;;;;9.43;91.96191;944.7585;;;;
2020/10/30 05:54:38;;;;;;;0.5;0.5;;;;;;;9.45;91.93164;944.7352;;;;
2020/10/30 05:57:03;;;;;;;1.4;0.6;;;;;;;9.46;91.92188;944.767;;;;
2020/10/30 05:59:31;;;;;;;0.9;0.6;;;;;;;9.33;92.37305;944.7144;;;;
2020/10/30 06:01:58;;;;;;;1;0.5;;;;;;;9.37;92.44922;944.7559;;;;
2020/10/30 06:04:23;;;;;;;0.8;0.6;;;;;;;9.44;92.29395;944.7141;;;;
2020/10/30 06:06:49;;;;;;;1.8;0.9;;;;;;;9.53;91.70996;944.7719;;;;
2020/10/30 06:09:14;;;;;;;5;0.9;;;;;;;9.49;91.71191;944.7441;;;;
2020/10/30 06:11:39;;;;;;;1.4;0.9;;;;;;;9.6;91.31348;944.8141;;;;
2020/10/30 06:14:04;;;;;;;1.5;1;;;;;;;9.68;90.96777;944.8705;;;;
2020/10/30 06:16:30;;;;;;;1.2;0.8;;;;;;;9.73;90.56641;944.9344;;;;
2020/10/30 06:18:55;;;;;;;2.1;1.2;;;;;;;9.81;90.18262;944.9258;;;;
2020/10/30 06:21:21;;;;;;;4.9;2.2;;;;;;;9.81;89.94531;944.81;;;;
2020/10/30 06:23:46;;;;;;;5.3;2.3;;;;;;;9.78;90.03125;944.8234;;;;
2020/10/30 06:26:11;;;;;;;2.5;1.6;;;;;;;9.71;90.55371;944.8267;;;;
2020/10/30 06:28:36;;;;;;;2.7;1.3;;;;;;;9.72;90.65625;944.772;;;;
2020/10/30 06:31:02;;;;;;;3.2;1.9;;;;;;;9.69;90.51367;944.7872;;;;
2020/10/30 06:33:27;;;;;;;2.6;2.3;;;;;;;9.64;90.93555;944.7159;;;;
2020/10/30 06:35:53;;;;;;;1.1;1;;;;;;;9.61;91.14551;944.868;;;;
2020/10/30 06:38:18;;;;;;;2.6;1.3;;;;;;;9.69;91.00195;944.9031;;;;
2020/10/30 06:40:51;;;;;;;0.5;0.3;;;;;;;9.71;91.00781;944.8711;;;;
2020/10/30 06:43:18;;;;;;;0.7;0.3;;;;;;;9.85;90.88965;944.8643;;;;
2020/10/30 06:45:55;;;;;;;0.5;0.4;;;;;;;9.81;90.34473;944.9171;;;;
2020/10/30 06:50:47;;;;;;;0.4;0.4;;;;;;;9.7;91.05078;944.9966;;;;
2020/10/30 06:53:11;;;;;;;0.9;0.4;;;;;;;9.82;90.63086;944.9462;;;;
2020/10/30 06:55:40;;;;;;;1.4;0.5;;;;;;;9.82;90.42578;944.948;;;;
2020/10/30 06:58:04;;;;;;;0.7;0.7;;;;;;;9.95;90.7373;945.0647;;;;
2020/10/30 07:00:30;;;;;;;1.1;0.8;;;;;;;10.12;90.31934;945.0186;;;;
2020/10/30 07:02:58;;;;;;;1.3;0.7;;;;;;;10.24;89.625;945.0583;;;;
2020/10/30 07:05:23;;;;;;;2.8;1.1;;;;;;;10.32;89.20605;944.9819;;;;
2020/10/30 07:07:50;;;;;;;1.1;0.8;;;;;;;10.38;88.95703;945.0995;;;;
2020/10/30 07:10:15;;;;;;;0.8;0.8;;;;;;;10.4;89.29199;945.1978;;;;
2020/10/30 07:12:41;;;;;;;1.3;1.1;;;;;;;10.49;89.09375;945.1792;;;;
2020/10/30 07:15:06;;;;;;;1.6;1.4;;;;;;;10.64;88.59961;945.2672;;;;
2020/10/30 07:17:34;;;;;;;1.1;0.8;;;;;;;10.75;88.43945;945.2869;;;;
2020/10/30 07:19:59;;;;;;;1.5;1;;;;;;;10.94;88.38672;945.3282;;;;
2020/10/30 07:22:26;;;;;;;1.9;1.3;;;;;;;11.1;87.81348;945.354;;;;
2020/10/30 07:24:51;;;;;;;1.5;0.9;;;;;;;11.26;86.55469;945.3739;;;;
2020/10/30 07:27:17;;;;;;;1.8;0.9;;;;;;;11.42;83.1416;945.4344;;;;
2020/10/30 07:29:42;;;;;;;1;0.9;;;;;;;11.64;83.41309;945.4528;;;;
2020/10/30 07:32:07;;;;;;;3.1;1.5;;;;;;;11.86;81.8291;945.4714;;;;
2020/10/30 07:34:33;;;;;;;2.2;0.9;;;;;;;12.01;82.6709;945.5053;;;;
2020/10/30 07:37:00;;;;;;;0.8;0.5;;;;;;;12.15;82.35352;945.5361;;;;
2020/10/30 07:39:25;;;;;;;1.6;0.8;;;;;;;12.5;81.33008;945.5848;;;;
2020/10/30 07:41:55;;;;;;;0.6;0.4;;;;;;;12.9;77.83496;945.6033;;;;
2020/10/30 07:44:22;;;;;;;1.8;0.6;;;;;;;13.28;75.8584;945.551;;;;
2020/10/30 07:46:48;;;;;;;1;0.5;;;;;;;13.47;74.74121;945.5836;;;;
2020/10/30 07:49:14;;;;;;;0.8;0.6;;;;;;;13.57;75.06836;945.6078;;;;
2020/10/30 07:51:40;;;;;;;0.9;0.5;;;;;;;13.63;74.5957;945.6608;;;;
2020/10/30 07:54:05;;;;;;;0.4;0.4;;;;;;;13.72;74.49707;945.6649;;;;
2020/10/30 07:56:32;;;;;;;0.3;0.3;;;;;;;13.79;73.1748;945.6365;;;;
2020/10/30 07:59:00;;;;;;;0.5;0.3;;;;;;;13.77;72.90527;945.6484;;;;
2020/10/30 08:01:26;;;;;;;1.3;0.7;;;;;;;13.69;72.41016;945.6814;;;;
2020/10/30 08:03:55;;;;;;;1.2;0.6;;;;;;;13.48;74.09863;945.6293;;;;
2020/10/30 08:06:20;;;;;;;0.3;0.3;;;;;;;14;73.86523;945.5786;;;;
2020/10/30 08:08:45;;;;;;;0.9;0.5;;;;;;;14.12;72.33105;945.5942;;;;
2020/10/30 08:11:10;;;;;;;0.3;0.3;;;;;;;14;72.54199;945.5867;;;;
2020/10/30 08:13:36;;;;;;;0.3;0.3;;;;;;;14;72.0127;945.5778;;;;
2020/10/30 08:16:01;;;;;;;0.2;0.2;;;;;;;14.08;71.4502;945.5756;;;;
2020/10/30 08:18:30;;;;;;;0.7;0.3;;;;;;;13.95;73.24609;945.5758;;;;
2020/10/30 08:20:55;;;;;;;0.8;0.5;;;;;;;13.91;72.88379;945.6547;;;;
2020/10/30 08:23:20;;;;;;;0.3;0.3;;;;;;;14.03;72.61523;945.6656;;;;
2020/10/30 08:25:46;;;;;;;0.2;0.1;;;;;;;14.22;72.10742;945.7139;;;;
2020/10/30 08:28:12;;;;;;;3.9;0.2;;;;;;;14.2;70.96289;945.6878;;;;
2020/10/30 08:30:38;;;;;;;0.5;0.2;;;;;;;14.23;70.21875;945.6691;;;;
2020/10/30 08:33:03;;;;;;;0.4;0.3;;;;;;;14.55;72.0459;945.6397;;;;
2020/10/30 08:35:28;;;;;;;0.3;0.3;;;;;;;14.47;70.67285;945.5703;;;;
2020/10/30 08:37:54;;;;;;;0.3;0.2;;;;;;;14.5;69.42285;945.601;;;;
2020/10/30 08:40:22;;;;;;;0.4;0.3;;;;;;;14.26;69.74121;945.6589;;;;
2020/10/30 08:42:47;;;;;;;1;0.4;;;;;;;14.05;70.62695;945.6689;;;;
2020/10/30 08:45:23;;;;;;;0.9;0.3;;;;;;;14.03;70.3252;945.7049;;;;
2020/10/30 08:47:48;;;;;;;0.2;0.2;;;;;;;14.15;71.85352;945.7475;;;;
2020/10/30 08:50:21;;;;;;;0.8;0.5;;;;;;;14.34;72.4834;945.8397;;;;
2020/10/30 08:52:49;;;;;;;1.9;1.4;;;;;;;14.36;71.81836;945.7629;;;;
2020/10/30 08:55:17;;;;;;;2.3;0.4;;;;;;;14.19;70.65039;945.8455;;;;
2020/10/30 08:57:42;;;;;;;0.4;0.3;;;;;;;14.29;70.98926;945.8995;;;;
2020/10/30 09:00:07;;;;;;;0.1;0.1;;;;;;;14.35;71.32227;945.9063;;;;
2020/10/30 09:02:32;;;;;;;0.4;0.4;;;;;;;14.49;72.1377;945.9976;;;;
2020/10/30 09:04:57;;;;;;;0.3;0.3;;;;;;;14.46;71.91406;945.9149;;;;
2020/10/30 09:07:24;;;;;;;1.2;0.5;;;;;;;14.26;71.74512;945.8904;;;;
2020/10/30 09:09:49;;;;;;;1.3;0.8;;;;;;;14.28;72.04688;945.9194;;;;
2020/10/30 09:12:16;;;;;;;0.6;0.5;;;;;;;14.57;72.27734;945.8426;;;;
2020/10/30 09:14:41;;;;;;;0.8;0.4;;;;;;;14.81;70.12891;945.9525;;;;
2020/10/30 09:17:06;;;;;;;0.5;0.5;;;;;;;14.51;70.58691;945.948;;;;
2020/10/30 09:19:32;;;;;;;0.4;0.4;;;;;;;14.51;69.44629;945.9072;;;;
2020/10/30 09:21:57;;;;;;;0.3;0.3;;;;;;;14.42;69.85938;945.8574;;;;
2020/10/30 09:24:23;;;;;;;0.5;0.5;;;;;;;14.42;70.66406;945.8405;;;;
2020/10/30 09:26:48;;;;;;;0.8;0.3;;;;;;;14.37;70.53027;945.8631;;;;
2020/10/30 09:29:13;;;;;;;1;0.7;;;;;;;14.42;70.20508;945.8597;;;;
2020/10/30 09:31:41;;;;;;;0.5;0.3;;;;;;;14.24;70.76172;945.8518;;;;
2020/10/30 09:34:06;;;;;;;0.2;0.2;;;;;;;14.58;71.50879;945.8739;;;;
2020/10/30 09:36:31;;;;;;;1.1;0.6;;;;;;;14.75;68.75977;945.8103;;;;
2020/10/30 09:38:57;;;;;;;2.5;0.6;;;;;;;14.75;69.58789;945.8208;;;;
2020/10/30 09:41:22;;;;;;;0.4;0.3;;;;;;;14.84;68.46094;945.7942;;;;
2020/10/30 09:43:50;;;;;;;0.7;0.5;;;;;;;15.14;69.15527;945.7092;;;;
2020/10/30 09:46:15;;;;;;;0.7;0.5;;;;;;;15.44;68.17383;945.8528;;;;
2020/10/30 09:48:40;;;;;;;0.2;0.2;;;;;;;15.49;68.40137;945.8963;;;;
2020/10/30 09:51:06;;;;;;;0.8;0.4;;;;;;;15.98;66.16504;945.8467;;;;
2020/10/30 09:53:31;;;;;;;0.3;0.3;;;;;;;16.31;64.60742;945.8337;;;;
2020/10/30 09:56:00;;;;;;;0.2;0.2;;;;;;;16.39;62.67578;945.812;;;;
2020/10/30 09:58:26;;;;;;;0.4;0.3;;;;;;;16.22;61.58691;945.6939;;;;
2020/10/30 10:00:56;;;;;;;0.4;0.3;;;;;;;16.04;63.22461;945.7723;;;;
2020/10/30 10:03:23;;;;;;;0.4;0.3;;;;;;;16.02;63.88184;945.7419;;;;
2020/10/30 10:05:48;;;;;;;1;0.4;;;;;;;15.9;65.04492;945.7607;;;;
2020/10/30 10:08:14;;;;;;;0.5;0.2;;;;;;;15.89;65.19141;945.6819;;;;
2020/10/30 10:10:39;;;;;;;0.7;0.3;;;;;;;15.73;66.79688;945.7192;;;;
2020/10/30 10:13:05;;;;;;;0.3;0.3;;;;;;;15.93;66.1123;945.649;;;;
2020/10/30 10:15:30;;;;;;;0.5;0.4;;;;;;;15.68;66.14355;945.5859;;;;
2020/10/30 10:17:56;;;;;;;0.2;0.2;;;;;;;15.69;68.30371;945.5747;;;;
2020/10/30 10:20:32;;;;;;;0.3;0.3;;;;;;;15.6;67.40137;945.5549;;;;
2020/10/30 10:23:47;;;;;;;0.5;0.3;;;;;;;15.76;66.41992;945.5747;;;;
2020/10/30 10:25:49;;;;;;;0.3;0.3;;;;;;;15.69;67.0918;945.5578;;;;
2020/10/30 10:27:41;;;;;;;0.2;0.2;;;;;;;15.86;66.10156;945.5278;;;;
2020/10/30 10:30:06;;;;;;;0.5;0.4;;;;;;;16.03;68.69434;945.5619;;;;
2020/10/30 10:32:31;;;;;;;0.5;0.3;;;;;;;15.97;67.43555;945.4595;;;;
2020/10/30 10:34:56;;;;;;;0.6;0.5;;;;;;;16.29;64.01367;945.4559;;;;
2020/10/30 10:37:22;;;;;;;0.9;0.3;;;;;;;16.03;66.63477;945.5;;;;
2020/10/30 10:39:47;;;;;;;0.3;0.2;;;;;;;16.2;62.88965;945.4944;;;;
2020/10/30 10:42:21;;;;;;;0.5;0.3;;;;;;;16.46;63.63379;945.4568;;;;
2020/10/30 10:44:38;;;;;;;8.1;0.6;;;;;;;16.78;63.36816;945.3723;;;;
2020/10/30 10:47:06;;;;;;;0.3;0.2;;;;;;;16.8;63.77637;945.4164;;;;
2020/10/30 10:49:31;;;;;;;0.2;0.2;;;;;;;17.03;60.61035;945.368;;;;
2020/10/30 10:51:56;;;;;;;0.1;0.1;;;;;;;16.87;60.7168;945.2516;;;;
2020/10/30 10:54:21;;;;;;;0.8;0.4;;;;;;;16.96;59.97461;945.1973;;;;
2020/10/30 10:56:47;;;;;;;0.1;0.1;;;;;;;16.9;61.7168;945.2708;;;;
2020/10/30 10:59:13;;;;;;;0.1;0.1;;;;;;;17.25;59.65723;945.2216;;;;
2020/10/30 11:01:38;;;;;;;0.2;0.2;;;;;;;16.98;60.46484;945.1884;;;;
2020/10/30 11:04:06;;;;;;;0.7;0.1;;;;;;;16.73;61.51855;945.1914;;;;
2020/10/30 11:06:31;;;;;;;0.2;0.1;;;;;;;16.88;58.86426;945.1325;;;;
2020/10/30 11:08:57;;;;;;;0.3;0.2;;;;;;;17.2;59.53418;945.1233;;;;
2020/10/30 11:11:21;;;;;;;0.1;0.1;;;;;;;17.38;59.93945;945.0687;;;;
2020/10/30 11:13:50;;;;;;;0.1;0.1;;;;;;;17.5;59.95605;945.032;;;;
2020/10/30 11:16:13;;;;;;;0.5;0.3;;;;;;;16.86;60.36621;945.0232;;;;
2020/10/30 11:18:41;;;;;;;0.2;0.2;;;;;;;17.33;59.0752;944.9973;;;;
2020/10/30 11:21:06;;;;;;;0.4;0.3;;;;;;;17.77;58.20508;944.943;;;;
2020/10/30 11:23:31;;;;;;;0.3;0.3;;;;;;;18;59.38477;944.9672;;;;
2020/10/30 11:25:57;;;;;;;0.5;0.2;;;;;;;18.1;57.69141;944.9135;;;;
2020/10/30 11:28:26;;;;;;;0.7;0.4;;;;;;;17.71;58.04688;944.8516;;;;
2020/10/30 11:30:54;;;;;;;0.2;0.1;;;;;;;18.06;57.0127;944.809;;;;
2020/10/30 11:33:20;;;;;;;0.1;0.1;;;;;;;18.47;55.58887;944.8242;;;;
2020/10/30 11:35:50;;;;;;;1.9;0.3;;;;;;;18.68;54.63867;944.7539;;;;
2020/10/30 11:38:17;;;;;;;0.3;0.2;;;;;;;18.36;55.29688;944.7452;;;;
2020/10/30 11:40:42;;;;;;;0.6;0.3;;;;;;;20.02;51.51465;944.6962;;;;
2020/10/30 11:43:09;;;;;;;0.4;0.4;;;;;;;21.56;45.69824;944.6841;;;;
2020/10/30 11:45:34;;;;;;;0.3;0.1;;;;;;;22.29;46.24316;944.6891;;;;
2020/10/30 11:48:01;;;;;;;0.5;0.3;;;;;;;24.1;41.76855;944.6638;;;;
2020/10/30 11:50:26;;;;;;;0.1;0.1;;;;;;;24.87;40.03613;944.6317;;;;
2020/10/30 11:52:51;;;;;;;0.1;0.1;;;;;;;26.08;35.38965;944.604;;;;
2020/10/30 11:55:16;;;;;;;0.1;0.1;;;;;;;26.79;34.52148;944.5911;;;;
2020/10/30 11:57:42;;;;;;;0.2;0;;;;;;;27.09;33.37109;944.5853;;;;
2020/10/30 12:00:07;;;;;;;0.4;0.3;;;;;;;26.72;34.70508;944.6563;;;;
2020/10/30 12:02:35;;;;;;;0.1;0.1;;;;;;;27.31;32.65137;944.6091;;;;
2020/10/30 12:05:00;;;;;;;0.3;0.2;;;;;;;27.8;32.12891;944.5578;;;;
2020/10/30 12:07:27;;;;;;;0.2;0.2;;;;;;;27.46;32.63965;944.5804;;;;
2020/10/30 12:09:53;;;;;;;0.4;0.2;;;;;;;28.38;31.62402;944.5397;;;;
2020/10/30 12:12:34;;;;;;;0.1;0.1;;;;;;;29.63;30.2334;944.4666;;;;
2020/10/30 12:14:50;;;;;;;0.5;0.2;;;;;;;30.75;28.41992;944.4568;;;;
2020/10/30 12:17:37;;;;;;;0.2;0.1;;;;;;;32.05;25.68457;944.4503;;;;
2020/10/30 12:19:42;;;;;;;0.4;0.2;;;;;;;31.6;25.93457;944.4767;;;;
2020/10/30 12:22:01;;;;;;;0.8;0.3;;;;;;;31.86;26.30957;944.4272;;;;
2020/10/30 12:24:27;;;;;;;0.1;0.1;;;;;;;31.09;27.2334;944.5234;;;;
2020/10/30 12:26:52;;;;;;;0.1;0.1;;;;;;;31.62;26.79785;944.4715;;;;
2020/10/30 12:29:19;;;;;;;0.5;0.2;;;;;;;33;25.15039;944.3764;;;;
2020/10/30 12:31:52;;;;;;;0;0;;;;;;;33.38;24.67871;944.3937;;;;
2020/10/30 12:34:24;;;;;;;0.1;0.1;;;;;;;33.71;24.07129;944.4247;;;;
2020/10/30 12:36:48;;;;;;;0.1;0.1;;;;;;;32.58;25.54688;944.515;;;;
2020/10/30 12:39:13;;;;;;;0.2;0.2;;;;;;;32.8;25.15137;944.4395;;;;
2020/10/30 12:41:39;;;;;;;0;0;;;;;;;33.25;24.68359;944.4667;;;;
2020/10/30 12:44:05;;;;;;;0.1;0.1;;;;;;;31.31;26.76855;944.4589;;;;
2020/10/30 12:46:33;;;;;;;0.4;0.2;;;;;;;32.27;25.79297;944.4149;;;;
2020/10/30 12:48:55;;;;;;;1;0.3;;;;;;;32.01;25.80273;944.3906;;;;
2020/10/30 12:51:20;;;;;;;0.4;0.3;;;;;;;32.36;25.22266;944.4402;;;;
2020/10/30 12:53:45;;;;;;;0.6;0.4;;;;;;;32.79;25.34277;944.4161;;;;
2020/10/30 12:56:11;;;;;;;0.3;0.2;;;;;;;32.3;26.33398;944.3967;;;;
2020/10/30 12:58:36;;;;;;;0.1;0.1;;;;;;;31.58;27.5625;944.3929;;;;
2020/10/30 13:01:01;;;;;;;0.4;0.3;;;;;;;31.33;27.87012;944.4149;;;;
2020/10/30 13:03:28;;;;;;;0.1;0;;;;;;;32.15;26.38574;944.3734;;;;
2020/10/30 13:05:53;;;;;;;0.6;0.2;;;;;;;32.42;26.11328;944.4084;;;;
2020/10/30 13:08:20;;;;;;;0.1;0.1;;;;;;;32.26;26.39258;944.3658;;;;
2020/10/30 13:10:55;;;;;;;0.4;0.1;;;;;;;32.97;25.59277;944.3198;;;;
2020/10/30 13:13:22;;;;;;;9.3;0.5;;;;;;;31.91;26.9707;944.3145;;;;
2020/10/30 13:15:47;;;;;;;0.4;0.2;;;;;;;32.26;26.26074;944.2942;;;;
2020/10/30 13:18:03;;;;;;;0.5;0.3;;;;;;;32.2;26.55664;944.287;;;;
2020/10/30 13:20:28;;;;;;;0.1;0.1;;;;;;;31.29;27.56836;944.2858;;;;
2020/10/30 13:22:53;;;;;;;0.4;0.1;;;;;;;30.52;28.37012;944.301;;;;
2020/10/30 13:25:24;;;;;;;0.2;0.2;;;;;;;31.21;27.61133;944.3016;;;;
2020/10/30 13:27:43;;;;;;;0;0;;;;;;;31.39;27.39551;944.3323;;;;
2020/10/30 13:30:44;;;;;;;0.6;0.2;;;;;;;31.85;27.1709;944.3089;;;;
2020/10/30 13:32:53;;;;;;;0.3;0.2;;;;;;;28.96;30.96191;944.3344;;;;
2020/10/30 13:35:50;;;;;;;0.1;0.1;;;;;;;29.53;30.04785;944.2864;;;;
2020/10/30 13:40:51;;;;;;;0;0;;;;;;;29.91;29.41699;944.3409;;;;
2020/10/30 13:42:34;;;;;;;0.1;0.1;;;;;;;28.85;31.44238;944.3699;;;;
2020/10/30 13:44:59;;;;;;;0.1;0;;;;;;;29.78;30.21875;944.3611;;;;
2020/10/30 13:47:24;;;;;;;0.4;0.2;;;;;;;29.25;30.49414;944.3448;;;;
2020/10/30 13:49:58;;;;;;;0.1;0.1;;;;;;;29.44;30.41113;944.4194;;;;
2020/10/30 13:52:28;;;;;;;0.1;0.1;;;;;;;30.15;29.51563;944.4521;;;;
2020/10/30 13:54:49;;;;;;;0;0;;;;;;;29.9;29.71387;944.4877;;;;
2020/10/30 13:57:14;;;;;;;0.1;0.1;;;;;;;29.91;29.82324;944.5016;;;;
2020/10/30 13:59:30;;;;;;;0;0;;;;;;;30.37;29.29199;944.5158;;;;
2020/10/30 14:01:55;;;;;;;0.2;0.2;;;;;;;30.68;28.83398;944.54;;;;
2020/10/30 14:04:23;;;;;;;0.6;0.1;;;;;;;30.33;29.01465;944.5586;;;;
2020/10/30 14:06:48;;;;;;;0.2;0.2;;;;;;;28.92;31.31738;944.5944;;;;
2020/10/30 14:09:13;;;;;;;0.4;0.2;;;;;;;25.02;37.84277;944.5784;;;;
2020/10/30 14:11:40;;;;;;;1.2;0.3;;;;;;;23.18;42.10547;944.5831;;;;
2020/10/30 14:14:05;;;;;;;0;0;;;;;;;21.54;45.90723;944.5832;;;;
2020/10/30 14:16:32;;;;;;;8.9;0.4;;;;;;;21.7;46.01758;944.541;;;;
2020/10/30 14:18:57;;;;;;;0.1;0.1;;;;;;;22.31;44.88477;944.5937;;;;
2020/10/30 14:21:23;;;;;;;0.1;0.1;;;;;;;24.6;40.61328;944.5787;;;;
2020/10/30 14:23:58;;;;;;;1;0.3;;;;;;;25.57;38.14844;944.5637;;;;
2020/10/30 14:26:13;;;;;;;3.6;0.6;;;;;;;24.97;39.08887;944.5784;;;;
2020/10/30 14:28:38;;;;;;;0.1;0.1;;;;;;;24.78;39.48535;944.6127;;;;
2020/10/30 14:31:04;;;;;;;0.5;0.2;;;;;;;24.12;40.33398;944.5948;;;;
2020/10/30 14:33:32;;;;;;;4;1.5;;;;;;;23.49;42.44043;944.6348;;;;
2020/10/30 14:35:57;;;;;;;1;0.2;;;;;;;23.68;42;944.6248;;;;
2020/10/30 14:38:22;;;;;;;0.1;0.1;;;;;;;24.15;40.71191;944.6445;;;;
2020/10/30 14:40:48;;;;;;;0.1;0.1;;;;;;;24.13;41.1123;944.6824;;;;
2020/10/30 14:43:13;;;;;;;0.1;0.1;;;;;;;22.76;43.49805;944.7266;;;;
2020/10/30 14:45:38;;;;;;;0.2;0.2;;;;;;;23.05;43.20996;944.76;;;;
2020/10/30 14:48:03;;;;;;;0.1;0.1;;;;;;;22.98;43.36621;944.783;;;;
2020/10/30 14:50:30;;;;;;;0.6;0.3;;;;;;;22.82;43.72656;944.8139;;;;
2020/10/30 14:52:55;;;;;;;0.5;0.3;;;;;;;22.53;44.86035;944.8162;;;;
2020/10/30 14:55:22;;;;;;;0.1;0.1;;;;;;;21.81;46.40332;944.8667;;;;
2020/10/30 14:57:47;;;;;;;0.3;0.1;;;;;;;21.17;48.19727;944.8544;;;;
2020/10/30 15:00:31;;;;;;;0.1;0.1;;;;;;;20.31;50.68457;944.9408;;;;
2020/10/30 15:02:57;;;;;;;0.5;0.2;;;;;;;19.83;52.05176;944.9417;;;;
2020/10/30 15:05:23;;;;;;;0.5;0.4;;;;;;;19.37;53.74609;945.0165;;;;
2020/10/30 15:07:52;;;;;;;0.5;0.3;;;;;;;18.99;55.08398;944.9919;;;;
2020/10/30 15:10:22;;;;;;;0.4;0.3;;;;;;;18.56;56.40332;944.9515;;;;
2020/10/30 15:12:48;;;;;;;0.2;0.2;;;;;;;18.22;57.64844;944.9608;;;;
2020/10/30 15:15:22;;;;;;;0.1;0.1;;;;;;;18.09;58.15527;945.0134;;;;
2020/10/30 15:17:50;;;;;;;1.3;0.9;;;;;;;17.36;61.61914;945.0262;;;;
2020/10/30 15:20:18;;;;;;;1.5;0.7;;;;;;;17.11;63.02051;944.9741;;;;
2020/10/30 15:22:43;;;;;;;0.8;0.6;;;;;;;16.74;64;945.0233;;;;
2020/10/30 15:25:14;;;;;;;2.2;0.6;;;;;;;15.93;67.38379;945.1021;;;;
2020/10/30 15:27:39;;;;;;;1.2;0.6;;;;;;;15.54;69.04395;945.1884;;;;
2020/10/30 15:30:05;;;;;;;0.3;0.3;;;;;;;15.7;68.79199;945.2543;;;;
2020/10/30 15:32:30;;;;;;;0.7;0.5;;;;;;;15.64;69.65039;945.1852;;;;
2020/10/30 15:34:58;;;;;;;1.4;0.5;;;;;;;15.79;69.41895;945.1459;;;;
2020/10/30 15:37:40;;;;;;;0.8;0.6;;;;;;;15.77;69.15039;945.1362;;;;
2020/10/30 15:39:47;;;;;;;0.4;0.4;;;;;;;15.63;68.48145;945.1587;;;;
2020/10/30 15:42:14;;;;;;;0.2;0.2;;;;;;;15.66;67.97754;945.1506;;;;
2020/10/30 15:44:39;;;;;;;0.7;0.2;;;;;;;15.7;68.37793;945.1539;;;;
2020/10/30 15:47:16;;;;;;;0.4;0.4;;;;;;;15.71;68.2041;945.1611;;;;
2020/10/30 15:54:47;;;;;;;3.3;0.5;;;;;;;15.6;68.78809;945.2795;;;;
2020/10/30 15:57:00;;;;;;;2.5;0.6;;;;;;;15.51;69.71094;945.231;;;;
2020/10/30 15:59:16;;;;;;;0.8;0.6;;;;;;;15.53;70.48633;945.3184;;;;
2020/10/30 16:01:44;;;;;;;3.7;1.5;;;;;;;15.52;72.45898;945.3683;;;;
2020/10/30 16:04:03;;;;;;;1.3;1.1;;;;;;;15.48;72.33691;945.3705;;;;
2020/10/30 16:06:32;;;;;;;1.1;0.8;;;;;;;15.45;71.35059;945.267;;;;
2020/10/30 16:08:59;;;;;;;1.5;0.8;;;;;;;15.4;71.18164;945.3396;;;;
2020/10/30 16:11:24;;;;;;;1.2;0.7;;;;;;;15.42;71.16113;945.3254;;;;
2020/10/30 16:13:51;;;;;;;1.6;0.6;;;;;;;15.43;71.08203;945.332;;;;